sensor_id;sensor_type;location;lat;lon;timestamp;P1;durP1;ratioP1;P2;durP2;ratioP2
38037;SDS011;23843;51.320;12.340;2023-07-24T00:01:58;0.40;;;0.40;;
38037;SDS011;23843;51.320;12.340;2023-07-24T00:04:24;0.50;;;0.50;;
38037;SDS011;23843;51.320;12.340;2023-07-24T00:06:49;0.45;;;0.45;;
38037;SDS011;23843;51.320;12.340;2023-07-24T00:09:15;0.35;;;0.30;;
38037;SDS011;23843;51.320;12.340;2023-07-24T00:11:40;0.40;;;0.40;;
38037;SDS011;23843;51.320;12.340;2023-07-24T00:14:07;0.68;;;0.50;;
38037;SDS011;23843;51.320;12.340;2023-07-24T00:16:32;0.40;;;0.40;;
38037;SDS011;23843;51.320;12.340;2023-07-24T00:18:58;0.30;;;0.30;;
38037;SDS011;23843;51.320;12.340;2023-07-24T00:21:23;0.30;;;0.30;;
38037;SDS011;23843;51.320;12.340;2023-07-24T00:23:49;0.52;;;0.40;;
38037;SDS011;23843;51.320;12.340;2023-07-24T00:26:14;0.68;;;0.40;;
38037;SDS011;23843;51.320;12.340;2023-07-24T00:28:40;0.35;;;0.35;;
38037;SDS011;23843;51.320;12.340;2023-07-24T00:31:06;0.30;;;0.30;;
38037;SDS011;23843;51.320;12.340;2023-07-24T00:33:32;0.30;;;0.30;;
38037;SDS011;23843;51.320;12.340;2023-07-24T00:35:57;0.30;;;0.30;;
38037;SDS011;23843;51.320;12.340;2023-07-24T00:38:23;0.63;;;0.63;;
38037;SDS011;23843;51.320;12.340;2023-07-24T00:40:48;0.30;;;0.30;;
38037;SDS011;23843;51.320;12.340;2023-07-24T00:43:14;0.30;;;0.30;;
38037;SDS011;23843;51.320;12.340;2023-07-24T00:45:39;0.40;;;0.40;;
38037;SDS011;23843;51.320;12.340;2023-07-24T00:48:06;0.40;;;0.25;;
38037;SDS011;23843;51.320;12.340;2023-07-24T00:50:32;0.30;;;0.30;;
38037;SDS011;23843;51.320;12.340;2023-07-24T00:52:58;0.32;;;0.32;;
38037;SDS011;23843;51.320;12.340;2023-07-24T00:55:23;0.30;;;0.30;;
38037;SDS011;23843;51.320;12.340;2023-07-24T00:57:49;0.40;;;0.40;;
38037;SDS011;23843;51.320;12.340;2023-07-24T01:00:15;0.40;;;0.40;;
38037;SDS011;23843;51.320;12.340;2023-07-24T01:02:41;0.50;;;0.50;;
38037;SDS011;23843;51.320;12.340;2023-07-24T01:05:09;0.55;;;0.55;;
38037;SDS011;23843;51.320;12.340;2023-07-24T01:07:37;0.50;;;0.50;;
38037;SDS011;23843;51.320;12.340;2023-07-24T01:10:03;1.20;;;1.10;;
38037;SDS011;23843;51.320;12.340;2023-07-24T01:12:31;0.63;;;0.63;;
38037;SDS011;23843;51.320;12.340;2023-07-24T01:15:03;1.20;;;1.10;;
38037;SDS011;23843;51.320;12.340;2023-07-24T01:17:34;0.90;;;0.90;;
38037;SDS011;23843;51.320;12.340;2023-07-24T01:20:07;0.40;;;0.40;;
38037;SDS011;23843;51.320;12.340;2023-07-24T01:22:38;0.30;;;0.30;;
38037;SDS011;23843;51.320;12.340;2023-07-24T01:25:05;0.50;;;0.50;;
38037;SDS011;23843;51.320;12.340;2023-07-24T01:27:39;0.50;;;0.50;;
38037;SDS011;23843;51.320;12.340;2023-07-24T01:30:06;0.60;;;0.57;;
38037;SDS011;23843;51.320;12.340;2023-07-24T01:32:33;0.40;;;0.40;;
38037;SDS011;23843;51.320;12.340;2023-07-24T01:34:58;0.30;;;0.30;;
38037;SDS011;23843;51.320;12.340;2023-07-24T01:37:24;1.00;;;1.00;;
38037;SDS011;23843;51.320;12.340;2023-07-24T01:39:51;0.40;;;0.40;;
38037;SDS011;23843;51.320;12.340;2023-07-24T01:42:18;0.30;;;0.30;;
38037;SDS011;23843;51.320;12.340;2023-07-24T01:44:46;0.30;;;0.30;;
38037;SDS011;23843;51.320;12.340;2023-07-24T01:47:16;0.40;;;0.40;;
38037;SDS011;23843;51.320;12.340;2023-07-24T01:49:41;0.40;;;0.40;;
38037;SDS011;23843;51.320;12.340;2023-07-24T01:52:07;0.70;;;0.70;;
38037;SDS011;23843;51.320;12.340;2023-07-24T01:54:32;0.30;;;0.30;;
38037;SDS011;23843;51.320;12.340;2023-07-24T01:56:58;0.50;;;0.50;;
38037;SDS011;23843;51.320;12.340;2023-07-24T01:59:23;0.20;;;0.20;;
38037;SDS011;23843;51.320;12.340;2023-07-24T02:01:50;0.40;;;0.40;;
38037;SDS011;23843;51.320;12.340;2023-07-24T02:04:16;0.30;;;0.30;;
38037;SDS011;23843;51.320;12.340;2023-07-24T02:06:41;0.40;;;0.40;;
38037;SDS011;23843;51.320;12.340;2023-07-24T02:09:07;0.47;;;0.47;;
38037;SDS011;23843;51.320;12.340;2023-07-24T02:11:32;0.30;;;0.30;;
38037;SDS011;23843;51.320;12.340;2023-07-24T02:13:58;0.30;;;0.30;;
38037;SDS011;23843;51.320;12.340;2023-07-24T02:16:24;0.40;;;0.40;;
38037;SDS011;23843;51.320;12.340;2023-07-24T02:18:51;0.38;;;0.38;;
38037;SDS011;23843;51.320;12.340;2023-07-24T02:21:16;0.30;;;0.30;;
38037;SDS011;23843;51.320;12.340;2023-07-24T02:23:42;0.38;;;0.38;;
38037;SDS011;23843;51.320;12.340;2023-07-24T02:26:07;0.40;;;0.30;;
38037;SDS011;23843;51.320;12.340;2023-07-24T02:28:33;0.30;;;0.30;;
38037;SDS011;23843;51.320;12.340;2023-07-24T02:30:58;0.57;;;0.32;;
38037;SDS011;23843;51.320;12.340;2023-07-24T02:33:24;0.32;;;0.32;;
38037;SDS011;23843;51.320;12.340;2023-07-24T02:35:52;0.40;;;0.40;;
38037;SDS011;23843;51.320;12.340;2023-07-24T02:38:18;0.47;;;0.47;;
38037;SDS011;23843;51.320;12.340;2023-07-24T02:40:43;0.50;;;0.50;;
38037;SDS011;23843;51.320;12.340;2023-07-24T02:43:10;0.70;;;0.70;;
38037;SDS011;23843;51.320;12.340;2023-07-24T02:45:36;0.60;;;0.60;;
38037;SDS011;23843;51.320;12.340;2023-07-24T02:48:02;0.57;;;0.55;;
38037;SDS011;23843;51.320;12.340;2023-07-24T02:50:28;0.40;;;0.40;;
38037;SDS011;23843;51.320;12.340;2023-07-24T02:52:54;0.47;;;0.47;;
38037;SDS011;23843;51.320;12.340;2023-07-24T02:55:20;0.50;;;0.50;;
38037;SDS011;23843;51.320;12.340;2023-07-24T02:57:45;0.63;;;0.63;;
38037;SDS011;23843;51.320;12.340;2023-07-24T03:00:11;0.40;;;0.40;;
38037;SDS011;23843;51.320;12.340;2023-07-24T03:02:37;0.40;;;0.40;;
38037;SDS011;23843;51.320;12.340;2023-07-24T03:05:03;0.40;;;0.40;;
38037;SDS011;23843;51.320;12.340;2023-07-24T03:07:29;0.40;;;0.40;;
38037;SDS011;23843;51.320;12.340;2023-07-24T03:09:56;0.70;;;0.50;;
38037;SDS011;23843;51.320;12.340;2023-07-24T03:12:21;0.60;;;0.50;;
38037;SDS011;23843;51.320;12.340;2023-07-24T03:14:47;0.50;;;0.50;;
38037;SDS011;23843;51.320;12.340;2023-07-24T03:17:12;0.80;;;0.80;;
38037;SDS011;23843;51.320;12.340;2023-07-24T03:19:38;0.40;;;0.40;;
38037;SDS011;23843;51.320;12.340;2023-07-24T03:22:03;0.50;;;0.50;;
38037;SDS011;23843;51.320;12.340;2023-07-24T03:24:29;0.52;;;0.52;;
38037;SDS011;23843;51.320;12.340;2023-07-24T03:26:56;0.45;;;0.45;;
38037;SDS011;23843;51.320;12.340;2023-07-24T03:29:21;0.40;;;0.40;;
38037;SDS011;23843;51.320;12.340;2023-07-24T03:31:47;0.47;;;0.47;;
38037;SDS011;23843;51.320;12.340;2023-07-24T03:34:12;0.40;;;0.40;;
38037;SDS011;23843;51.320;12.340;2023-07-24T03:36:38;0.30;;;0.30;;
38037;SDS011;23843;51.320;12.340;2023-07-24T03:39:03;1.85;;;0.50;;
38037;SDS011;23843;51.320;12.340;2023-07-24T03:41:28;0.32;;;0.32;;
38037;SDS011;23843;51.320;12.340;2023-07-24T03:43:55;0.30;;;0.30;;
38037;SDS011;23843;51.320;12.340;2023-07-24T03:46:21;0.63;;;0.63;;
38037;SDS011;23843;51.320;12.340;2023-07-24T03:48:47;0.30;;;0.30;;
38037;SDS011;23843;51.320;12.340;2023-07-24T03:51:12;0.40;;;0.40;;
38037;SDS011;23843;51.320;12.340;2023-07-24T03:53:38;0.32;;;0.32;;
38037;SDS011;23843;51.320;12.340;2023-07-24T03:56:03;0.40;;;0.40;;
38037;SDS011;23843;51.320;12.340;2023-07-24T03:58:29;0.30;;;0.30;;
38037;SDS011;23843;51.320;12.340;2023-07-24T04:00:56;0.40;;;0.40;;
38037;SDS011;23843;51.320;12.340;2023-07-24T04:03:21;0.40;;;0.40;;
38037;SDS011;23843;51.320;12.340;2023-07-24T04:05:47;0.50;;;0.50;;
38037;SDS011;23843;51.320;12.340;2023-07-24T04:08:12;0.40;;;0.40;;
38037;SDS011;23843;51.320;12.340;2023-07-24T04:10:38;0.30;;;0.30;;
38037;SDS011;23843;51.320;12.340;2023-07-24T04:13:23;0.52;;;0.52;;
38037;SDS011;23843;51.320;12.340;2023-07-24T04:16:10;0.63;;;0.63;;
38037;SDS011;23843;51.320;12.340;2023-07-24T04:18:55;0.50;;;0.50;;
38037;SDS011;23843;51.320;12.340;2023-07-24T04:21:41;0.40;;;0.40;;
38037;SDS011;23843;51.320;12.340;2023-07-24T04:24:26;0.73;;;0.73;;
38037;SDS011;23843;51.320;12.340;2023-07-24T04:27:07;0.30;;;0.30;;
38037;SDS011;23843;51.320;12.340;2023-07-24T04:29:43;0.60;;;0.60;;
38037;SDS011;23843;51.320;12.340;2023-07-24T04:32:10;0.63;;;0.60;;
38037;SDS011;23843;51.320;12.340;2023-07-24T04:34:36;0.68;;;0.63;;
38037;SDS011;23843;51.320;12.340;2023-07-24T04:37:01;1.10;;;0.70;;
38037;SDS011;23843;51.320;12.340;2023-07-24T04:39:27;1.00;;;0.90;;
38037;SDS011;23843;51.320;12.340;2023-07-24T04:41:52;1.20;;;1.00;;
38037;SDS011;23843;51.320;12.340;2023-07-24T04:44:18;1.20;;;1.10;;
38037;SDS011;23843;51.320;12.340;2023-07-24T04:46:43;1.42;;;1.33;;
38037;SDS011;23843;51.320;12.340;2023-07-24T04:49:10;1.80;;;1.40;;
38037;SDS011;23843;51.320;12.340;2023-07-24T04:51:35;1.52;;;1.30;;
38037;SDS011;23843;51.320;12.340;2023-07-24T04:54:01;1.58;;;1.40;;
38037;SDS011;23843;51.320;12.340;2023-07-24T04:56:26;1.15;;;1.00;;
38037;SDS011;23843;51.320;12.340;2023-07-24T04:58:52;1.67;;;1.58;;
38037;SDS011;23843;51.320;12.340;2023-07-24T05:01:17;1.60;;;1.50;;
38037;SDS011;23843;51.320;12.340;2023-07-24T05:03:43;1.60;;;1.30;;
38037;SDS011;23843;51.320;12.340;2023-07-24T05:06:10;1.40;;;1.30;;
38037;SDS011;23843;51.320;12.340;2023-07-24T05:08:35;1.70;;;1.60;;
38037;SDS011;23843;51.320;12.340;2023-07-24T05:11:00;1.90;;;1.60;;
38037;SDS011;23843;51.320;12.340;2023-07-24T05:13:26;1.70;;;1.58;;
38037;SDS011;23843;51.320;12.340;2023-07-24T05:15:52;2.00;;;1.73;;
38037;SDS011;23843;51.320;12.340;2023-07-24T05:18:17;2.10;;;1.90;;
38037;SDS011;23843;51.320;12.340;2023-07-24T05:20:44;1.58;;;1.48;;
38037;SDS011;23843;51.320;12.340;2023-07-24T05:23:11;1.60;;;1.35;;
38037;SDS011;23843;51.320;12.340;2023-07-24T05:25:36;1.45;;;1.25;;
38037;SDS011;23843;51.320;12.340;2023-07-24T05:28:02;1.40;;;1.30;;
38037;SDS011;23843;51.320;12.340;2023-07-24T05:30:28;1.60;;;1.50;;
38037;SDS011;23843;51.320;12.340;2023-07-24T05:32:53;1.45;;;1.35;;
38037;SDS011;23843;51.320;12.340;2023-07-24T05:35:18;1.98;;;1.88;;
38037;SDS011;23843;51.320;12.340;2023-07-24T05:37:44;1.60;;;1.45;;
38037;SDS011;23843;51.320;12.340;2023-07-24T05:40:11;1.13;;;1.02;;
38037;SDS011;23843;51.320;12.340;2023-07-24T05:42:36;1.70;;;1.60;;
38037;SDS011;23843;51.320;12.340;2023-07-24T05:45:02;1.60;;;1.50;;
38037;SDS011;23843;51.320;12.340;2023-07-24T05:47:28;2.15;;;1.95;;
38037;SDS011;23843;51.320;12.340;2023-07-24T05:49:53;2.15;;;1.95;;
38037;SDS011;23843;51.320;12.340;2023-07-24T05:52:19;2.30;;;2.10;;
38037;SDS011;23843;51.320;12.340;2023-07-24T05:54:44;1.88;;;1.70;;
38037;SDS011;23843;51.320;12.340;2023-07-24T05:57:11;2.20;;;2.00;;
38037;SDS011;23843;51.320;12.340;2023-07-24T05:59:37;2.10;;;1.90;;
38037;SDS011;23843;51.320;12.340;2023-07-24T06:02:02;2.10;;;1.90;;
38037;SDS011;23843;51.320;12.340;2023-07-24T06:04:28;2.10;;;1.73;;
38037;SDS011;23843;51.320;12.340;2023-07-24T06:06:54;2.65;;;2.45;;
38037;SDS011;23843;51.320;12.340;2023-07-24T06:09:19;2.40;;;2.20;;
38037;SDS011;23843;51.320;12.340;2023-07-24T06:11:45;1.70;;;1.60;;
38037;SDS011;23843;51.320;12.340;2023-07-24T06:14:12;2.22;;;2.03;;
38037;SDS011;23843;51.320;12.340;2023-07-24T06:16:37;1.50;;;1.40;;
38037;SDS011;23843;51.320;12.340;2023-07-24T06:19:03;1.67;;;1.58;;
38037;SDS011;23843;51.320;12.340;2023-07-24T06:21:28;1.70;;;1.60;;
38037;SDS011;23843;51.320;12.340;2023-07-24T06:23:56;2.03;;;1.83;;
38037;SDS011;23843;51.320;12.340;2023-07-24T06:26:22;2.40;;;2.20;;
38037;SDS011;23843;51.320;12.340;2023-07-24T06:28:48;2.33;;;2.13;;
38037;SDS011;23843;51.320;12.340;2023-07-24T06:31:14;2.60;;;2.40;;
38037;SDS011;23843;51.320;12.340;2023-07-24T06:33:40;2.53;;;2.28;;
38037;SDS011;23843;51.320;12.340;2023-07-24T06:36:08;3.40;;;2.50;;
38037;SDS011;23843;51.320;12.340;2023-07-24T06:38:34;2.70;;;2.50;;
38037;SDS011;23843;51.320;12.340;2023-07-24T06:41:00;2.67;;;2.22;;
38037;SDS011;23843;51.320;12.340;2023-07-24T06:43:25;3.15;;;2.85;;
38037;SDS011;23843;51.320;12.340;2023-07-24T06:45:51;2.60;;;2.40;;
38037;SDS011;23843;51.320;12.340;2023-07-24T06:48:17;2.78;;;2.58;;
38037;SDS011;23843;51.320;12.340;2023-07-24T06:50:43;2.50;;;2.30;;
38037;SDS011;23843;51.320;12.340;2023-07-24T06:53:09;2.50;;;2.30;;
38037;SDS011;23843;51.320;12.340;2023-07-24T06:55:34;2.42;;;2.22;;
38037;SDS011;23843;51.320;12.340;2023-07-24T06:57:59;2.38;;;2.17;;
38037;SDS011;23843;51.320;12.340;2023-07-24T07:00:25;2.72;;;2.53;;
38037;SDS011;23843;51.320;12.340;2023-07-24T07:02:50;2.50;;;2.30;;
38037;SDS011;23843;51.320;12.340;2023-07-24T07:05:17;2.90;;;2.70;;
38037;SDS011;23843;51.320;12.340;2023-07-24T07:07:43;2.35;;;2.15;;
38037;SDS011;23843;51.320;12.340;2023-07-24T07:10:09;2.53;;;2.33;;
38037;SDS011;23843;51.320;12.340;2023-07-24T07:12:34;2.58;;;2.38;;
38037;SDS011;23843;51.320;12.340;2023-07-24T07:15:00;2.40;;;2.20;;
38037;SDS011;23843;51.320;12.340;2023-07-24T07:17:25;2.42;;;2.22;;
38037;SDS011;23843;51.320;12.340;2023-07-24T07:19:51;2.20;;;2.00;;
38037;SDS011;23843;51.320;12.340;2023-07-24T07:22:18;2.30;;;1.90;;
38037;SDS011;23843;51.320;12.340;2023-07-24T07:24:43;2.38;;;2.17;;
38037;SDS011;23843;51.320;12.340;2023-07-24T07:27:09;2.50;;;2.30;;
38037;SDS011;23843;51.320;12.340;2023-07-24T07:29:34;3.58;;;2.92;;
38037;SDS011;23843;51.320;12.340;2023-07-24T07:32:00;3.15;;;2.85;;
38037;SDS011;23843;51.320;12.340;2023-07-24T07:34:25;2.70;;;2.50;;
38037;SDS011;23843;51.320;12.340;2023-07-24T07:36:51;2.45;;;2.25;;
38037;SDS011;23843;51.320;12.340;2023-07-24T07:39:18;2.45;;;2.25;;
38037;SDS011;23843;51.320;12.340;2023-07-24T07:41:43;2.40;;;2.20;;
38037;SDS011;23843;51.320;12.340;2023-07-24T07:44:08;2.60;;;2.40;;
38037;SDS011;23843;51.320;12.340;2023-07-24T07:46:34;2.50;;;2.30;;
38037;SDS011;23843;51.320;12.340;2023-07-24T07:48:59;4.50;;;4.10;;
38037;SDS011;23843;51.320;12.340;2023-07-24T07:51:25;2.83;;;2.53;;
38037;SDS011;23843;51.320;12.340;2023-07-24T07:53:50;3.80;;;2.80;;
38037;SDS011;23843;51.320;12.340;2023-07-24T07:56:17;2.95;;;2.28;;
38037;SDS011;23843;51.320;12.340;2023-07-24T07:58:43;2.88;;;2.60;;
38037;SDS011;23843;51.320;12.340;2023-07-24T08:01:08;3.20;;;2.88;;
38037;SDS011;23843;51.320;12.340;2023-07-24T08:03:34;2.80;;;2.53;;
38037;SDS011;23843;51.320;12.340;2023-07-24T08:05:59;2.83;;;2.40;;
38037;SDS011;23843;51.320;12.340;2023-07-24T08:08:25;2.88;;;2.58;;
38037;SDS011;23843;51.320;12.340;2023-07-24T08:10:50;2.50;;;2.30;;
38037;SDS011;23843;51.320;12.340;2023-07-24T08:13:17;3.20;;;2.72;;
38037;SDS011;23843;51.320;12.340;2023-07-24T08:15:43;3.35;;;3.05;;
38037;SDS011;23843;51.320;12.340;2023-07-24T08:18:08;3.20;;;2.38;;
38037;SDS011;23843;51.320;12.340;2023-07-24T08:20:35;3.15;;;2.70;;
38037;SDS011;23843;51.320;12.340;2023-07-24T08:23:01;2.88;;;2.58;;
38037;SDS011;23843;51.320;12.340;2023-07-24T08:25:27;2.42;;;2.20;;
38037;SDS011;23843;51.320;12.340;2023-07-24T08:27:52;2.90;;;2.60;;
38037;SDS011;23843;51.320;12.340;2023-07-24T08:30:19;4.20;;;2.83;;
38037;SDS011;23843;51.320;12.340;2023-07-24T08:32:45;3.03;;;2.70;;
38037;SDS011;23843;51.320;12.340;2023-07-24T08:35:10;2.60;;;2.40;;
38037;SDS011;23843;51.320;12.340;2023-07-24T08:37:36;3.60;;;3.30;;
38037;SDS011;23843;51.320;12.340;2023-07-24T08:40:01;2.75;;;2.53;;
38037;SDS011;23843;51.320;12.340;2023-07-24T08:42:27;3.00;;;2.70;;
38037;SDS011;23843;51.320;12.340;2023-07-24T08:44:54;3.10;;;2.80;;
38037;SDS011;23843;51.320;12.340;2023-07-24T08:47:23;3.08;;;2.75;;
38037;SDS011;23843;51.320;12.340;2023-07-24T08:49:49;2.90;;;2.65;;
38037;SDS011;23843;51.320;12.340;2023-07-24T08:52:16;2.80;;;2.60;;
38037;SDS011;23843;51.320;12.340;2023-07-24T08:54:42;3.00;;;2.80;;
38037;SDS011;23843;51.320;12.340;2023-07-24T08:57:09;3.50;;;2.80;;
38037;SDS011;23843;51.320;12.340;2023-07-24T08:59:36;3.30;;;3.00;;
38037;SDS011;23843;51.320;12.340;2023-07-24T09:02:01;3.13;;;2.88;;
38037;SDS011;23843;51.320;12.340;2023-07-24T09:04:28;2.85;;;2.60;;
38037;SDS011;23843;51.320;12.340;2023-07-24T09:06:55;3.40;;;3.10;;
38037;SDS011;23843;51.320;12.340;2023-07-24T09:09:22;3.72;;;3.38;;
38037;SDS011;23843;51.320;12.340;2023-07-24T09:11:48;3.67;;;3.33;;
38037;SDS011;23843;51.320;12.340;2023-07-24T09:14:22;3.60;;;3.17;;
38037;SDS011;23843;51.320;12.340;2023-07-24T09:16:48;3.50;;;3.20;;
38037;SDS011;23843;51.320;12.340;2023-07-24T09:19:17;6.03;;;3.60;;
38037;SDS011;23843;51.320;12.340;2023-07-24T09:21:45;3.85;;;3.47;;
38037;SDS011;23843;51.320;12.340;2023-07-24T09:24:11;3.63;;;3.33;;
38037;SDS011;23843;51.320;12.340;2023-07-24T09:26:46;2.97;;;2.78;;
38037;SDS011;23843;51.320;12.340;2023-07-24T09:29:12;3.22;;;2.92;;
38037;SDS011;23843;51.320;12.340;2023-07-24T09:31:38;2.28;;;2.15;;
38037;SDS011;23843;51.320;12.340;2023-07-24T09:34:03;2.97;;;2.67;;
38037;SDS011;23843;51.320;12.340;2023-07-24T09:36:36;2.97;;;2.53;;
38037;SDS011;23843;51.320;12.340;2023-07-24T09:39:04;2.60;;;2.40;;
38037;SDS011;23843;51.320;12.340;2023-07-24T09:41:29;2.42;;;2.22;;
38037;SDS011;23843;51.320;12.340;2023-07-24T09:43:57;4.40;;;3.67;;
38037;SDS011;23843;51.320;12.340;2023-07-24T09:46:23;4.93;;;4.32;;
38037;SDS011;23843;51.320;12.340;2023-07-24T09:48:49;4.40;;;4.00;;
38037;SDS011;23843;51.320;12.340;2023-07-24T09:51:15;2.63;;;2.42;;
38037;SDS011;23843;51.320;12.340;2023-07-24T09:53:43;8.25;;;4.88;;
38037;SDS011;23843;51.320;12.340;2023-07-24T09:56:13;5.40;;;4.90;;
38037;SDS011;23843;51.320;12.340;2023-07-24T09:58:42;5.45;;;4.88;;
38037;SDS011;23843;51.320;12.340;2023-07-24T10:01:09;4.85;;;4.40;;
38037;SDS011;23843;51.320;12.340;2023-07-24T10:03:38;4.43;;;4.00;;
38037;SDS011;23843;51.320;12.340;2023-07-24T10:06:04;4.53;;;3.70;;
38037;SDS011;23843;51.320;12.340;2023-07-24T10:08:30;3.50;;;3.20;;
38037;SDS011;23843;51.320;12.340;2023-07-24T10:10:56;3.38;;;3.08;;
38037;SDS011;23843;51.320;12.340;2023-07-24T10:13:25;3.92;;;3.63;;
38037;SDS011;23843;51.320;12.340;2023-07-24T10:15:52;8.65;;;5.60;;
38037;SDS011;23843;51.320;12.340;2023-07-24T10:18:17;6.57;;;4.95;;
38037;SDS011;23843;51.320;12.340;2023-07-24T10:20:59;4.80;;;4.30;;
38037;SDS011;23843;51.320;12.340;2023-07-24T10:23:26;6.93;;;5.03;;
38037;SDS011;23843;51.320;12.340;2023-07-24T10:25:52;5.72;;;5.22;;
38037;SDS011;23843;51.320;12.340;2023-07-24T10:28:17;5.82;;;5.20;;
38037;SDS011;23843;51.320;12.340;2023-07-24T10:30:44;5.68;;;5.05;;
38037;SDS011;23843;51.320;12.340;2023-07-24T10:33:20;5.25;;;4.70;;
38037;SDS011;23843;51.320;12.340;2023-07-24T10:35:46;5.72;;;4.88;;
38037;SDS011;23843;51.320;12.340;2023-07-24T10:38:14;4.90;;;4.40;;
38037;SDS011;23843;51.320;12.340;2023-07-24T10:40:41;4.80;;;4.38;;
38037;SDS011;23843;51.320;12.340;2023-07-24T10:43:09;5.38;;;4.60;;
38037;SDS011;23843;51.320;12.340;2023-07-24T10:45:40;7.40;;;4.55;;
38037;SDS011;23843;51.320;12.340;2023-07-24T10:48:13;5.53;;;4.70;;
38037;SDS011;23843;51.320;12.340;2023-07-24T10:50:39;4.97;;;4.20;;
38037;SDS011;23843;51.320;12.340;2023-07-24T10:53:05;4.10;;;3.70;;
38037;SDS011;23843;51.320;12.340;2023-07-24T10:55:31;4.45;;;3.60;;
38037;SDS011;23843;51.320;12.340;2023-07-24T10:57:56;4.40;;;4.00;;
38037;SDS011;23843;51.320;12.340;2023-07-24T11:00:22;4.75;;;3.70;;
38037;SDS011;23843;51.320;12.340;2023-07-24T11:02:48;3.10;;;2.80;;
38037;SDS011;23843;51.320;12.340;2023-07-24T11:05:14;5.50;;;4.50;;
38037;SDS011;23843;51.320;12.340;2023-07-24T11:07:41;5.18;;;4.22;;
38037;SDS011;23843;51.320;12.340;2023-07-24T11:10:14;5.88;;;4.95;;
38037;SDS011;23843;51.320;12.340;2023-07-24T11:12:39;5.35;;;4.85;;
38037;SDS011;23843;51.320;12.340;2023-07-24T11:15:05;4.90;;;4.40;;
38037;SDS011;23843;51.320;12.340;2023-07-24T11:17:35;5.22;;;4.32;;
38037;SDS011;23843;51.320;12.340;2023-07-24T11:20:23;4.32;;;3.72;;
38037;SDS011;23843;51.320;12.340;2023-07-24T11:23:09;4.90;;;4.40;;
38037;SDS011;23843;51.320;12.340;2023-07-24T11:25:55;4.95;;;3.97;;
38037;SDS011;23843;51.320;12.340;2023-07-24T11:28:20;5.57;;;4.63;;
38037;SDS011;23843;51.320;12.340;2023-07-24T11:30:46;4.40;;;4.00;;
38037;SDS011;23843;51.320;12.340;2023-07-24T11:33:12;7.32;;;5.20;;
38037;SDS011;23843;51.320;12.340;2023-07-24T11:35:41;6.07;;;5.15;;
38037;SDS011;23843;51.320;12.340;2023-07-24T11:38:07;4.82;;;4.38;;
38037;SDS011;23843;51.320;12.340;2023-07-24T11:40:34;5.95;;;5.35;;
38037;SDS011;23843;51.320;12.340;2023-07-24T11:43:01;5.47;;;4.10;;
38037;SDS011;23843;51.320;12.340;2023-07-24T11:45:28;6.10;;;5.35;;
38037;SDS011;23843;51.320;12.340;2023-07-24T11:47:54;6.50;;;5.57;;
38037;SDS011;23843;51.320;12.340;2023-07-24T11:50:19;6.72;;;5.40;;
38037;SDS011;23843;51.320;12.340;2023-07-24T11:52:47;5.55;;;4.70;;
38037;SDS011;23843;51.320;12.340;2023-07-24T11:55:14;4.70;;;4.25;;
38037;SDS011;23843;51.320;12.340;2023-07-24T11:57:40;4.82;;;4.32;;
38037;SDS011;23843;51.320;12.340;2023-07-24T12:00:06;6.05;;;4.30;;
38037;SDS011;23843;51.320;12.340;2023-07-24T12:02:42;8.32;;;6.40;;
38037;SDS011;23843;51.320;12.340;2023-07-24T12:05:09;8.38;;;6.55;;
38037;SDS011;23843;51.320;12.340;2023-07-24T12:07:35;6.80;;;6.10;;
38037;SDS011;23843;51.320;12.340;2023-07-24T12:10:03;6.60;;;5.53;;
38037;SDS011;23843;51.320;12.340;2023-07-24T12:12:36;7.85;;;6.63;;
38037;SDS011;23843;51.320;12.340;2023-07-24T12:15:03;6.00;;;5.40;;
38037;SDS011;23843;51.320;12.340;2023-07-24T12:17:29;9.35;;;6.55;;
38037;SDS011;23843;51.320;12.340;2023-07-24T12:19:54;6.18;;;5.40;;
38037;SDS011;23843;51.320;12.340;2023-07-24T12:22:20;5.03;;;4.53;;
38037;SDS011;23843;51.320;12.340;2023-07-24T12:24:45;7.88;;;5.65;;
38037;SDS011;23843;51.320;12.340;2023-07-24T12:27:12;6.28;;;5.22;;
38037;SDS011;23843;51.320;12.340;2023-07-24T12:29:37;7.65;;;6.32;;
38037;SDS011;23843;51.320;12.340;2023-07-24T12:32:03;7.28;;;6.28;;
38037;SDS011;23843;51.320;12.340;2023-07-24T12:34:29;6.50;;;5.53;;
38037;SDS011;23843;51.320;12.340;2023-07-24T12:36:55;6.57;;;5.88;;
38037;SDS011;23843;51.320;12.340;2023-07-24T12:39:20;7.95;;;5.95;;
38037;SDS011;23843;51.320;12.340;2023-07-24T12:41:46;7.68;;;6.30;;
38037;SDS011;23843;51.320;12.340;2023-07-24T12:44:12;6.20;;;5.35;;
38037;SDS011;23843;51.320;12.340;2023-07-24T12:46:38;5.22;;;4.72;;
38037;SDS011;23843;51.320;12.340;2023-07-24T12:49:18;8.73;;;5.80;;
38037;SDS011;23843;51.320;12.340;2023-07-24T12:51:44;5.13;;;4.50;;
38037;SDS011;23843;51.320;12.340;2023-07-24T12:54:09;5.68;;;4.90;;
38037;SDS011;23843;51.320;12.340;2023-07-24T12:56:35;6.95;;;5.78;;
38037;SDS011;23843;51.320;12.340;2023-07-24T12:59:01;6.43;;;5.53;;
38037;SDS011;23843;51.320;12.340;2023-07-24T13:01:28;5.53;;;4.60;;
38037;SDS011;23843;51.320;12.340;2023-07-24T13:03:53;4.75;;;4.25;;
38037;SDS011;23843;51.320;12.340;2023-07-24T13:06:19;5.55;;;4.53;;
38037;SDS011;23843;51.320;12.340;2023-07-24T13:08:44;7.55;;;5.90;;
38037;SDS011;23843;51.320;12.340;2023-07-24T13:11:09;7.57;;;6.78;;
38037;SDS011;23843;51.320;12.340;2023-07-24T13:13:35;7.07;;;6.10;;
38037;SDS011;23843;51.320;12.340;2023-07-24T13:16:00;6.45;;;5.85;;
38037;SDS011;23843;51.320;12.340;2023-07-24T13:18:27;5.97;;;4.95;;
38037;SDS011;23843;51.320;12.340;2023-07-24T13:20:53;5.20;;;4.70;;
38037;SDS011;23843;51.320;12.340;2023-07-24T13:23:18;7.60;;;6.47;;
38037;SDS011;23843;51.320;12.340;2023-07-24T13:25:44;6.05;;;5.35;;
38037;SDS011;23843;51.320;12.340;2023-07-24T13:28:09;5.43;;;4.90;;
38037;SDS011;23843;51.320;12.340;2023-07-24T13:30:38;4.85;;;4.25;;
38037;SDS011;23843;51.320;12.340;2023-07-24T13:33:03;4.43;;;3.60;;
38037;SDS011;23843;51.320;12.340;2023-07-24T13:35:30;6.15;;;5.15;;
38037;SDS011;23843;51.320;12.340;2023-07-24T13:37:56;6.00;;;5.07;;
38037;SDS011;23843;51.320;12.340;2023-07-24T13:40:21;5.85;;;4.82;;
38037;SDS011;23843;51.320;12.340;2023-07-24T13:42:46;5.50;;;4.50;;
38037;SDS011;23843;51.320;12.340;2023-07-24T13:45:12;4.82;;;4.18;;
38037;SDS011;23843;51.320;12.340;2023-07-24T13:47:37;4.75;;;4.30;;
38037;SDS011;23843;51.320;12.340;2023-07-24T13:50:06;4.20;;;3.63;;
38037;SDS011;23843;51.320;12.340;2023-07-24T13:52:33;4.95;;;4.28;;
38037;SDS011;23843;51.320;12.340;2023-07-24T13:54:58;3.80;;;3.40;;
38037;SDS011;23843;51.320;12.340;2023-07-24T13:57:24;2.83;;;2.53;;
38037;SDS011;23843;51.320;12.340;2023-07-24T13:59:49;4.53;;;3.63;;
38037;SDS011;23843;51.320;12.340;2023-07-24T14:02:15;5.80;;;4.85;;
38037;SDS011;23843;51.320;12.340;2023-07-24T14:04:40;7.47;;;5.35;;
38037;SDS011;23843;51.320;12.340;2023-07-24T14:07:06;5.53;;;4.40;;
38037;SDS011;23843;51.320;12.340;2023-07-24T14:09:33;8.15;;;5.53;;
38037;SDS011;23843;51.320;12.340;2023-07-24T14:11:58;6.10;;;5.22;;
38037;SDS011;23843;51.320;12.340;2023-07-24T14:14:24;6.53;;;5.40;;
38037;SDS011;23843;51.320;12.340;2023-07-24T14:16:49;4.25;;;3.85;;
38037;SDS011;23843;51.320;12.340;2023-07-24T14:19:15;4.80;;;4.30;;
38037;SDS011;23843;51.320;12.340;2023-07-24T14:21:40;3.60;;;3.30;;
38037;SDS011;23843;51.320;12.340;2023-07-24T14:24:06;4.20;;;3.80;;
38037;SDS011;23843;51.320;12.340;2023-07-24T14:26:33;4.22;;;3.58;;
38037;SDS011;23843;51.320;12.340;2023-07-24T14:28:58;3.92;;;3.53;;
38037;SDS011;23843;51.320;12.340;2023-07-24T14:31:23;5.35;;;4.00;;